Biloxi, MS

9:10 AM CDT on May 26, 2015 (GMT -0500)
Lott International | | Change Station
CLOSE
Current Station
Airport
Location: Pascagoula,
Elevation: 16 ft
Nearby Weather Stations

Elev 16 ft 30.46 °N, 88.53 °W | Updated 17 minutes ago

Clear
Clear
67 °F
Feels Like 67 °F
N
8
Wind Variable Wind from North

Today
High -- | Low -- °F
--% Chance of Precip.
Yesterday
High -- | Low -- °F
Precip. -- in
5:55 AM 7:49 PM
First Quarter, 58% visible
Pressure 30.16 in
Visibility 10.0 miles
Clouds Few 7500 ft
Scattered Clouds 9500 ft
Dew Point 65 °F
Humidity 93%
Rainfall 1.30 in
Snow Depth Not available.
UV 4 out of 12
Pollen 3.30 out of 12
Air Quality Not available.
Flu Activity No Activity
METAR KPQL 261353Z 36007KT 10SM FEW075 SCT095 19/18 A3016 RMK AO2 RAE32 SLP213 P0000 T01940183

More Conditions Fewer Conditions

Pressure 30.16 in
Visibility 10.0 miles
Clouds Few 7500 ft
Scattered Clouds 9500 ft
Dew Point 65 °F
Humidity 93%
Rainfall 1.30 in
Snow Depth Not available.
UV 4 out of 12
Pollen 3.30 out of 12
Air Quality Not available.
Flu Activity No Activity
METAR KPQL 261353Z 36007KT 10SM FEW075 SCT095 19/18 A3016 RMK AO2 RAE32 SLP213 P0000 T01940183

More Conditions Fewer Conditions

10-Day Weather Forecast

Almanac

Astronomy

May. 26, 2015 Rise Set
Actual Time
Civil Twilight
Nautical Twilight
Astronomical Twilight
Moon
Length of Visible Light
Length of Day
Tomorrow will be .
, % of the Moon is Illuminated

Today's Extremes

State Highs State Lows

Community

WunderPhotos

Upload Photos

1,824,344 photos uploaded!

WunderBlogs® & News

Nearby

Air Quality

  Air Quality AQ Index Pollutant
Not available.

Snow Depth

Station Depth Elevation

Earthquake Activity

City Distance Mag. Time & Date
Minimum magnitude displayed is 2.5.

Coastal Water Temperatures

Place Temperature

Stations

Nearby Weather Stations

Station Location Temp. Windchill Dew Point Humidity Wind Precip. Elev Updated Type